Terminal Aerodrome Forecast
Issued by NWS Greer, SC

Home | Current Version | Previous Version | Text Only | Print | Product List | Glossary On
Versions: 1 2 3 4 5 6 7 8 9 10 11 12 13 14 15 16 17
000
FTUS42 KGSP 220537
TAFGSP
TAF
KGSP 220537Z 2206/2306 04007KT P6SM -RADZ OVC025
     FM220900 04008KT P6SM -RADZ OVC012
      TEMPO 2209/2213 5SM -RADZ BR OVC007
     FM221300 04008KT 6SM BR OVC008
     FM221800 04008KT P6SM OVC012
     FM230200 05008KT 6SM -DZ BR OVC007=

USA.gov is the U.S. government's official web portal to all federal, state and local government web resources and services.